createdAt,value
2023-02-14T00:01:51.812Z,100.00
2023-02-14T00:04:38.564Z,100.00
2023-02-14T00:07:25.104Z,100.00
2023-02-14T00:10:12.422Z,100.00
2023-02-14T00:12:58.706Z,100.00
2023-02-14T00:15:46.524Z,100.00
2023-02-14T00:18:50.395Z,100.00
2023-02-14T00:21:38.719Z,100.00
2023-02-14T00:24:27.111Z,100.00
2023-02-14T00:27:13.691Z,100.00
2023-02-14T00:30:02.708Z,100.00
2023-02-14T00:32:50.615Z,100.00
2023-02-14T00:35:38.847Z,100.00
2023-02-14T00:38:25.627Z,100.00
2023-02-14T00:41:19.292Z,100.00
2023-02-14T00:44:06.794Z,100.00
2023-02-14T00:46:53.508Z,100.00
2023-02-14T00:49:44.574Z,100.00
2023-02-14T00:52:31.812Z,100.00
2023-02-14T00:55:18.704Z,100.00
2023-02-14T00:58:06.744Z,100.00
2023-02-14T01:00:53.777Z,100.00
2023-02-14T01:03:40.834Z,100.00
2023-02-14T01:06:28.875Z,100.00
2023-02-14T01:09:16.342Z,100.00
2023-02-14T01:12:03.187Z,100.00
2023-02-14T01:14:49.959Z,100.00
2023-02-14T01:17:39.233Z,100.00
2023-02-14T01:20:26.158Z,100.00
2023-02-14T01:23:14.272Z,100.00
2023-02-14T01:26:06.024Z,100.00
2023-02-14T01:28:53.565Z,100.00
2023-02-14T01:31:40.219Z,100.00
2023-02-14T01:34:26.854Z,100.00
2023-02-14T01:37:13.727Z,100.00
2023-02-14T01:40:03.009Z,100.00
2023-02-14T01:42:49.789Z,100.00
2023-02-14T01:45:36.627Z,100.00
2023-02-14T01:48:24.926Z,100.00
2023-02-14T01:51:11.791Z,100.00
2023-02-14T01:54:00.217Z,100.00
2023-02-14T01:56:52.740Z,100.00
2023-02-14T01:59:47.496Z,100.00
2023-02-14T02:02:34.363Z,100.00
2023-02-14T02:05:23.936Z,100.00
2023-02-14T02:08:10.669Z,100.00
2023-02-14T02:10:57.290Z,100.00
2023-02-14T02:13:45.312Z,100.00
2023-02-14T02:16:49.221Z,100.00
2023-02-14T02:20:15.359Z,100.00
2023-02-14T02:23:51.319Z,100.00
2023-02-14T02:27:08.384Z,100.00
2023-02-14T02:30:37.827Z,100.00
2023-02-14T02:34:01.961Z,100.00
2023-02-14T02:37:17.449Z,100.00
2023-02-14T02:40:23.476Z,100.00
2023-02-14T02:43:22.016Z,100.00
2023-02-14T02:46:34.483Z,100.00
2023-02-14T02:50:10.179Z,100.00
2023-02-14T02:53:07.027Z,100.00
2023-02-14T02:56:18.420Z,100.00
2023-02-14T02:59:18.494Z,100.00
2023-02-14T03:02:14.877Z,100.00
2023-02-14T03:05:05.659Z,100.00
2023-02-14T03:07:52.256Z,100.00
2023-02-14T03:10:40.752Z,100.00
2023-02-14T03:13:54.349Z,100.00
2023-02-14T03:16:54.849Z,100.00
2023-02-14T03:20:11.855Z,100.00
2023-02-14T03:23:05.671Z,100.00
2023-02-14T03:26:08.067Z,100.00
2023-02-14T03:29:03.930Z,100.00
2023-02-14T03:31:59.542Z,100.00
2023-02-14T03:34:55.280Z,100.00
2023-02-14T03:37:49.011Z,100.00
2023-02-14T03:40:40.236Z,100.00
2023-02-14T03:43:32.869Z,100.00
2023-02-14T03:46:25.585Z,100.00
2023-02-14T03:49:18.752Z,100.00
2023-02-14T03:52:08.529Z,100.00
2023-02-14T03:54:59.258Z,100.00
2023-02-14T03:57:54.145Z,100.00
2023-02-14T04:00:43.731Z,100.00
2023-02-14T04:03:33.426Z,100.00
2023-02-14T04:06:21.087Z,100.00
2023-02-14T04:09:07.738Z,100.00
2023-02-14T04:11:54.593Z,100.00
2023-02-14T04:14:41.473Z,100.00
2023-02-14T04:17:46.660Z,100.00
2023-02-14T04:20:34.261Z,100.00
2023-02-14T04:23:20.930Z,100.00
2023-02-14T04:26:08.104Z,100.00
2023-02-14T04:28:54.758Z,100.00
2023-02-14T04:31:42.237Z,100.00
2023-02-14T04:34:30.046Z,98.76
2023-02-14T04:37:19.640Z,100.00
2023-02-14T04:40:07.355Z,97.85
2023-02-14T04:42:54.260Z,98.00
2023-02-14T04:45:40.831Z,100.00
2023-02-14T04:48:27.618Z,100.00
2023-02-14T04:51:15.873Z,100.00
2023-02-14T04:54:02.740Z,100.00
2023-02-14T04:56:49.657Z,100.00
2023-02-14T04:59:36.408Z,100.00
2023-02-14T05:02:23.273Z,100.00
2023-02-14T05:05:09.974Z,100.00
2023-02-14T05:07:58.140Z,100.00
2023-02-14T05:10:45.252Z,100.00
2023-02-14T05:13:32.166Z,100.00
2023-02-14T05:16:19.115Z,100.00
2023-02-14T05:19:05.838Z,100.00
2023-02-14T05:21:52.725Z,100.00
2023-02-14T05:24:40.790Z,100.00
2023-02-14T05:27:27.467Z,100.00
2023-02-14T05:30:15.329Z,100.00
2023-02-14T05:33:02.555Z,100.00
2023-02-14T05:35:49.705Z,100.00
2023-02-14T05:38:36.738Z,100.00
2023-02-14T05:41:24.799Z,100.00
2023-02-14T05:44:11.546Z,100.00
2023-02-14T05:46:58.282Z,100.00
2023-02-14T05:49:44.971Z,100.00
2023-02-14T05:52:31.706Z,100.00
2023-02-14T05:55:18.622Z,100.00
2023-02-14T05:58:07.581Z,100.00
2023-02-14T06:00:54.008Z,100.00
2023-02-14T06:03:40.826Z,100.00
2023-02-14T06:06:27.850Z,100.00
2023-02-14T06:09:15.003Z,100.00
2023-02-14T06:12:01.855Z,100.00
2023-02-14T06:14:50.040Z,100.00
2023-02-14T06:17:36.908Z,100.00
2023-02-14T06:20:25.292Z,100.00
2023-02-14T06:23:11.787Z,100.00
2023-02-14T06:25:58.862Z,100.00
2023-02-14T06:28:45.352Z,100.00
2023-02-14T06:31:33.738Z,100.00
2023-02-14T06:34:20.647Z,100.00
2023-02-14T06:37:07.447Z,100.00
2023-02-14T06:39:54.172Z,100.00
2023-02-14T06:42:41.119Z,100.00
2023-02-14T06:45:27.825Z,100.00
2023-02-14T06:48:15.974Z,100.00
2023-02-14T06:51:03.196Z,100.00
2023-02-14T06:53:49.784Z,100.00
2023-02-14T06:56:36.552Z,100.00
2023-02-14T06:59:23.325Z,100.00
2023-02-14T07:02:15.358Z,100.00
2023-02-14T07:05:03.838Z,100.00
2023-02-14T07:07:50.846Z,100.00
2023-02-14T07:10:37.264Z,100.00
2023-02-14T07:13:24.428Z,100.00
2023-02-14T07:16:10.963Z,100.00
2023-02-14T07:18:57.686Z,100.00
2023-02-14T07:21:45.830Z,100.00
2023-02-14T07:24:32.625Z,100.00
2023-02-14T07:27:19.374Z,100.00
2023-02-14T07:30:07.559Z,100.00
2023-02-14T07:32:54.040Z,100.00
2023-02-14T07:35:40.910Z,100.00
2023-02-14T07:38:30.625Z,100.00
2023-02-14T07:41:17.499Z,100.00
2023-02-14T07:44:04.192Z,100.00
2023-02-14T07:46:51.070Z,100.00
2023-02-14T07:49:38.228Z,100.00
2023-02-14T07:52:25.199Z,100.00
2023-02-14T07:55:13.396Z,99.96
2023-02-14T07:58:00.150Z,99.81
2023-02-14T08:00:47.626Z,99.46
2023-02-14T08:03:34.465Z,99.90
2023-02-14T08:06:21.692Z,99.07
2023-02-14T08:09:12.177Z,98.41
2023-02-14T08:12:17.809Z,100.00
2023-02-14T08:15:24.237Z,100.00
2023-02-14T08:18:13.562Z,100.00
2023-02-14T08:21:00.989Z,98.09
2023-02-14T08:23:47.746Z,98.73
2023-02-14T08:26:34.458Z,97.02
2023-02-14T08:29:22.678Z,97.36
2023-02-14T08:32:09.387Z,94.44
2023-02-14T08:34:56.076Z,96.25
2023-02-14T08:37:42.978Z,94.20
2023-02-14T08:40:29.843Z,94.40
2023-02-14T08:43:16.787Z,93.60
2023-02-14T08:46:05.065Z,94.62
2023-02-14T08:48:53.508Z,94.87
2023-02-14T08:51:39.870Z,92.48
2023-02-14T08:54:26.650Z,92.73
2023-02-14T08:57:15.597Z,92.17
2023-02-14T09:00:02.120Z,90.94
2023-02-14T09:02:53.049Z,91.23
2023-02-14T09:05:39.820Z,90.77
2023-02-14T09:08:26.717Z,91.63
2023-02-14T09:11:15.231Z,93.70
2023-02-14T09:14:01.910Z,91.27
2023-02-14T09:16:48.707Z,89.40
2023-02-14T09:19:38.849Z,90.98
2023-02-14T09:22:25.441Z,87.60
2023-02-14T09:25:12.771Z,88.88
2023-02-14T09:27:59.693Z,90.09
2023-02-14T09:30:46.384Z,89.78
2023-02-14T09:33:33.233Z,89.07
2023-02-14T09:36:21.467Z,87.77
2023-02-14T09:39:07.992Z,87.95
2023-02-14T09:42:16.488Z,89.09
2023-02-14T09:45:08.176Z,87.40
2023-02-14T09:47:58.998Z,87.46
2023-02-14T09:50:50.895Z,87.30
2023-02-14T09:53:45.071Z,88.33
2023-02-14T09:56:51.690Z,85.50
2023-02-14T09:59:50.366Z,84.42
2023-02-14T10:02:43.695Z,86.43
2023-02-14T10:05:33.520Z,86.20
2023-02-14T10:08:39.485Z,85.18
2023-02-14T10:11:29.676Z,82.42
2023-02-14T10:14:21.162Z,84.70
2023-02-14T10:17:11.057Z,83.58
2023-02-14T10:20:02.839Z,82.65
2023-02-14T10:22:56.428Z,84.70
2023-02-14T10:25:48.062Z,81.89
2023-02-14T10:28:41.033Z,82.28
2023-02-14T10:31:31.205Z,81.91
2023-02-14T10:34:23.564Z,81.78
2023-02-14T10:37:25.148Z,80.98
2023-02-14T10:40:36.162Z,82.06
2023-02-14T10:43:35.234Z,79.86
2023-02-14T10:46:34.317Z,82.24
2023-02-14T10:49:34.551Z,83.99
2023-02-14T10:52:26.711Z,82.23
2023-02-14T10:55:31.372Z,82.32
2023-02-14T10:58:21.516Z,82.92
2023-02-14T11:01:12.075Z,84.62
2023-02-14T11:04:04.283Z,82.30
2023-02-14T11:06:51.631Z,84.01
2023-02-14T11:09:38.098Z,83.44
2023-02-14T11:12:37.595Z,83.60
2023-02-14T11:15:28.491Z,81.41
2023-02-14T11:18:23.672Z,80.50
2023-02-14T11:21:14.667Z,81.45
2023-02-14T11:24:01.506Z,79.11
2023-02-14T11:26:50.197Z,82.34
2023-02-14T11:29:45.666Z,82.20
2023-02-14T11:32:37.639Z,83.37
2023-02-14T11:35:30.273Z,81.72
2023-02-14T11:38:30.655Z,80.22
2023-02-14T11:41:18.215Z,80.88
2023-02-14T11:44:22.292Z,78.47
2023-02-14T11:47:27.871Z,79.35
2023-02-14T11:50:23.393Z,81.14
2023-02-14T11:53:13.129Z,80.57
2023-02-14T11:56:01.542Z,81.21
2023-02-14T11:58:54.405Z,79.74
2023-02-14T12:01:41.450Z,82.16
2023-02-14T12:04:38.118Z,81.71
2023-02-14T12:07:32.130Z,80.87
2023-02-14T12:10:22.601Z,79.37
2023-02-14T12:13:26.753Z,80.65
2023-02-14T12:16:22.639Z,82.63
2023-02-14T12:19:18.530Z,79.46
2023-02-14T12:22:07.650Z,80.09
2023-02-14T12:25:03.809Z,79.61
2023-02-14T12:27:54.991Z,78.43
2023-02-14T12:30:42.935Z,79.03
2023-02-14T12:33:29.436Z,78.87
2023-02-14T12:36:29.522Z,79.67
2023-02-14T12:39:27.276Z,79.09
2023-02-14T12:42:26.955Z,78.74
2023-02-14T12:45:20.191Z,80.47
2023-02-14T12:48:22.971Z,80.81
2023-02-14T12:51:15.193Z,82.59
2023-02-14T12:54:18.490Z,81.18
2023-02-14T12:57:14.222Z,82.02
2023-02-14T13:00:15.044Z,79.95
2023-02-14T13:03:32.431Z,78.96
2023-02-14T13:06:27.484Z,79.14
2023-02-14T13:09:34.994Z,78.71
2023-02-14T13:12:35.141Z,80.33
2023-02-14T13:15:30.121Z,77.90
2023-02-14T13:18:27.703Z,76.65
2023-02-14T13:21:19.933Z,76.65
2023-02-14T13:24:18.420Z,77.51
2023-02-14T13:27:08.261Z,78.60
2023-02-14T13:30:01.612Z,78.30
2023-02-14T13:32:56.066Z,77.66
2023-02-14T13:35:43.377Z,77.93
2023-02-14T13:38:33.006Z,78.14
2023-02-14T13:41:22.226Z,78.59
2023-02-14T13:44:13.143Z,78.03
2023-02-14T13:47:00.381Z,78.92
2023-02-14T13:49:54.258Z,81.08
2023-02-14T13:52:47.016Z,79.20
2023-02-14T13:55:37.703Z,82.56
2023-02-14T13:58:25.867Z,79.47
2023-02-14T14:01:31.550Z,77.82
2023-02-14T14:04:38.528Z,78.36
2023-02-14T14:07:30.151Z,81.32
2023-02-14T14:10:46.078Z,79.17
2023-02-14T14:14:02.684Z,81.17
2023-02-14T14:16:59.360Z,82.50
2023-02-14T14:19:47.472Z,80.16
2023-02-14T14:22:47.913Z,79.01
2023-02-14T14:25:37.594Z,79.22
2023-02-14T14:28:27.996Z,80.85
2023-02-14T14:31:15.066Z,81.32
2023-02-14T14:34:02.769Z,80.97
2023-02-14T14:36:49.799Z,79.12
2023-02-14T14:39:39.966Z,79.32
2023-02-14T14:42:30.612Z,80.51
2023-02-14T14:45:24.925Z,82.06
2023-02-14T14:48:14.451Z,81.17
2023-02-14T14:51:01.572Z,81.20
2023-02-14T14:53:51.955Z,82.68
2023-02-14T14:56:47.039Z,82.91
2023-02-14T14:59:35.842Z,83.57
2023-02-14T15:02:26.422Z,84.10
2023-02-14T15:05:26.064Z,84.98
2023-02-14T15:08:17.863Z,84.40
2023-02-14T15:11:13.117Z,87.87
2023-02-14T15:13:59.875Z,87.39
2023-02-14T15:16:49.753Z,90.49
2023-02-14T15:19:41.835Z,89.96
2023-02-14T15:22:31.330Z,89.30
2023-02-14T15:25:21.204Z,91.46
2023-02-14T15:28:07.816Z,93.39
2023-02-14T15:30:59.231Z,92.52
2023-02-14T15:33:46.050Z,92.57
2023-02-14T15:36:36.086Z,94.48
2023-02-14T15:39:28.487Z,94.41
2023-02-14T15:42:25.838Z,95.33
2023-02-14T15:45:17.057Z,95.57
2023-02-14T15:48:09.274Z,96.54
2023-02-14T15:50:59.176Z,96.08
2023-02-14T15:53:52.741Z,98.98
2023-02-14T15:56:45.720Z,99.74
2023-02-14T15:59:34.973Z,98.91
2023-02-14T16:02:31.248Z,100.00
2023-02-14T16:05:20.395Z,99.32
2023-02-14T16:08:24.132Z,100.00
2023-02-14T16:11:16.957Z,100.00
2023-02-14T16:14:21.777Z,100.00
2023-02-14T16:17:13.003Z,99.36
2023-02-14T16:19:59.782Z,99.98
2023-02-14T16:22:46.817Z,100.00
2023-02-14T16:25:33.672Z,100.00
2023-02-14T16:28:22.028Z,100.00
2023-02-14T16:31:12.541Z,100.00
2023-02-14T16:33:59.630Z,100.00
2023-02-14T16:36:46.491Z,100.00
2023-02-14T16:39:33.363Z,100.00
2023-02-14T16:42:20.339Z,100.00
2023-02-14T16:45:15.214Z,100.00
2023-02-14T16:48:01.651Z,100.00
2023-02-14T16:50:48.692Z,100.00
2023-02-14T16:53:36.236Z,100.00
2023-02-14T16:56:27.390Z,100.00
2023-02-14T16:59:14.039Z,100.00
2023-02-14T17:02:02.360Z,100.00
2023-02-14T17:04:48.786Z,100.00
2023-02-14T17:07:35.814Z,100.00
2023-02-14T17:10:22.499Z,100.00
2023-02-14T17:13:10.775Z,100.00
2023-02-14T17:15:58.315Z,100.00
2023-02-14T17:18:49.557Z,100.00
2023-02-14T17:21:36.268Z,100.00
2023-02-14T17:24:22.740Z,100.00
2023-02-14T17:27:09.946Z,100.00
2023-02-14T17:29:56.454Z,100.00
2023-02-14T17:32:43.199Z,100.00
2023-02-14T17:35:31.533Z,100.00
2023-02-14T17:38:20.248Z,100.00
2023-02-14T17:41:14.936Z,100.00
2023-02-14T17:44:02.066Z,100.00
2023-02-14T17:46:48.651Z,100.00
2023-02-14T17:49:35.592Z,100.00
2023-02-14T17:52:24.309Z,100.00
2023-02-14T17:55:11.225Z,100.00
2023-02-14T17:57:58.749Z,100.00
2023-02-14T18:00:45.752Z,100.00
2023-02-14T18:03:32.863Z,100.00
2023-02-14T18:06:19.925Z,100.00
2023-02-14T18:09:08.190Z,100.00
2023-02-14T18:11:55.648Z,100.00
2023-02-14T18:14:42.372Z,100.00
2023-02-14T18:17:29.344Z,100.00
2023-02-14T18:20:16.125Z,100.00
2023-02-14T18:23:07.146Z,100.00
2023-02-14T18:25:57.707Z,100.00
2023-02-14T18:28:44.550Z,100.00
2023-02-14T18:31:31.671Z,100.00
2023-02-14T18:34:18.558Z,100.00
2023-02-14T18:37:06.149Z,100.00
2023-02-14T18:39:52.677Z,100.00
2023-02-14T18:42:40.794Z,100.00
2023-02-14T18:45:27.668Z,100.00
2023-02-14T18:48:14.372Z,100.00
2023-02-14T18:51:06.583Z,100.00
2023-02-14T18:53:54.581Z,100.00
2023-02-14T18:56:41.768Z,100.00
2023-02-14T18:59:29.585Z,100.00
2023-02-14T19:02:16.783Z,100.00
2023-02-14T19:05:04.376Z,100.00
2023-02-14T19:07:55.191Z,100.00
2023-02-14T19:10:41.857Z,100.00
2023-02-14T19:13:29.498Z,100.00
2023-02-14T19:16:20.128Z,100.00
2023-02-14T19:19:06.578Z,100.00
2023-02-14T19:21:53.573Z,100.00
2023-02-14T19:24:40.174Z,100.00
2023-02-14T19:27:26.917Z,100.00
2023-02-14T19:30:14.193Z,100.00
2023-02-14T19:33:02.176Z,100.00
2023-02-14T19:35:50.280Z,100.00
2023-02-14T19:38:36.900Z,100.00
2023-02-14T19:41:26.009Z,100.00
2023-02-14T19:44:14.795Z,100.00
2023-02-14T19:47:05.892Z,100.00
2023-02-14T19:50:00.579Z,100.00
2023-02-14T19:52:47.317Z,100.00
2023-02-14T19:55:34.946Z,100.00
2023-02-14T19:58:21.616Z,100.00
2023-02-14T20:01:08.273Z,100.00
2023-02-14T20:03:55.243Z,100.00
2023-02-14T20:06:43.944Z,100.00
2023-02-14T20:09:30.385Z,100.00
2023-02-14T20:12:17.349Z,100.00
2023-02-14T20:15:05.843Z,100.00
2023-02-14T20:17:53.380Z,100.00
2023-02-14T20:21:05.957Z,100.00
2023-02-14T20:23:54.545Z,100.00
2023-02-14T20:26:42.639Z,100.00
2023-02-14T20:29:29.942Z,100.00
2023-02-14T20:32:17.490Z,100.00
2023-02-14T20:35:04.262Z,100.00
2023-02-14T20:37:52.521Z,100.00
2023-02-14T20:40:42.758Z,100.00
2023-02-14T20:43:29.334Z,100.00
2023-02-14T20:46:16.075Z,100.00
2023-02-14T20:49:03.341Z,100.00
2023-02-14T20:51:51.571Z,100.00
2023-02-14T20:54:39.428Z,100.00
2023-02-14T20:57:27.210Z,100.00
2023-02-14T21:00:15.180Z,100.00
2023-02-14T21:03:01.810Z,100.00
2023-02-14T21:05:49.084Z,100.00
2023-02-14T21:08:36.818Z,100.00
2023-02-14T21:11:25.172Z,100.00
2023-02-14T21:14:13.232Z,100.00
2023-02-14T21:17:00.025Z,100.00
2023-02-14T21:19:46.778Z,100.00
2023-02-14T21:22:33.837Z,100.00
2023-02-14T21:25:23.387Z,100.00
2023-02-14T21:28:10.814Z,100.00
2023-02-14T21:31:05.383Z,100.00
2023-02-14T21:33:53.458Z,100.00
2023-02-14T21:36:40.285Z,100.00
2023-02-14T21:39:27.938Z,100.00
2023-02-14T21:42:17.214Z,100.00
2023-02-14T21:45:22.873Z,100.00
2023-02-14T21:48:33.615Z,100.00
2023-02-14T21:51:20.802Z,100.00
2023-02-14T21:54:07.815Z,100.00
2023-02-14T21:56:54.707Z,100.00
2023-02-14T21:59:41.851Z,100.00
2023-02-14T22:02:28.364Z,100.00
2023-02-14T22:05:16.714Z,100.00
2023-02-14T22:08:03.610Z,100.00
2023-02-14T22:10:50.265Z,100.00
2023-02-14T22:13:37.443Z,100.00
2023-02-14T22:16:27.219Z,100.00
2023-02-14T22:19:16.104Z,100.00
2023-02-14T22:22:04.054Z,100.00
2023-02-14T22:24:50.767Z,100.00
2023-02-14T22:27:40.023Z,100.00
2023-02-14T22:30:26.577Z,100.00
2023-02-14T22:33:13.305Z,100.00
2023-02-14T22:36:01.059Z,100.00
2023-02-14T22:38:49.526Z,100.00
2023-02-14T22:41:38.033Z,100.00
2023-02-14T22:44:25.087Z,100.00
2023-02-14T22:47:12.734Z,100.00
2023-02-14T22:50:01.420Z,100.00
2023-02-14T22:52:49.065Z,100.00
2023-02-14T22:55:38.039Z,100.00
2023-02-14T22:58:26.732Z,100.00
2023-02-14T23:01:18.819Z,100.00
2023-02-14T23:04:07.425Z,100.00
2023-02-14T23:06:56.297Z,100.00
2023-02-14T23:09:43.448Z,100.00
2023-02-14T23:12:49.569Z,100.00
2023-02-14T23:15:54.449Z,100.00
2023-02-14T23:18:59.446Z,100.00
2023-02-14T23:21:58.381Z,100.00
2023-02-14T23:24:46.837Z,100.00
2023-02-14T23:27:37.725Z,100.00
2023-02-14T23:30:24.878Z,100.00
2023-02-14T23:33:11.565Z,100.00
2023-02-14T23:35:58.320Z,100.00
2023-02-14T23:38:45.081Z,100.00
2023-02-14T23:41:49.980Z,100.00
2023-02-14T23:44:38.223Z,100.00
2023-02-14T23:47:24.746Z,100.00
2023-02-14T23:50:16.565Z,100.00
2023-02-14T23:53:05.797Z,100.00
2023-02-14T23:55:53.140Z,100.00
2023-02-14T23:58:40.589Z,100.00
